Time;durP1;ratioP1;P1;durP2;ratioP2;P2;SDS_P1;SDS_P2;PMS_P1;PMS_P2;Temp;Humidity;BMP_temperature;BMP_pressure;BME280_temperature;BME280_humidity;BME280_pressure;Samples;Min_cycle;Max_cycle;Signal;HPM_P1;HPM_P2
2024/01/07 00:01:56;;;;;;;33.30;18.70;;;;;;;3.96;88.73;94273.02;110609;1274;22152;-82
2024/01/07 00:04:25;;;;;;;25.80;14.60;;;;;;;3.95;89.11;94267.98;110591;1274;22199;-82
2024/01/07 00:06:53;;;;;;;27.90;16.30;;;;;;;4.01;89.49;94263.71;110605;1274;22095;-82
2024/01/07 00:09:21;;;;;;;35.60;22.20;;;;;;;4.03;89.23;94263.33;110599;1274;22300;-81
2024/01/07 00:11:50;;;;;;;33.20;22.00;;;;;;;4.10;89.46;94258.87;110601;1274;22106;-81
2024/01/07 00:14:18;;;;;;;31.70;19.50;;;;;;;4.10;88.60;94265.67;110608;1274;22181;-82
2024/01/07 00:16:46;;;;;;;28.50;18.50;;;;;;;4.00;87.87;94267.20;110588;1274;22947;-81
2024/01/07 00:19:15;;;;;;;25.30;14.80;;;;;;;3.90;88.22;94275.17;110617;1263;22922;-82
2024/01/07 00:21:43;;;;;;;23.20;14.60;;;;;;;3.86;88.57;94281.14;110594;1274;22277;-82
2024/01/07 00:24:11;;;;;;;12.90;9.70;;;;;;;3.88;89.00;94283.36;110617;1274;22121;-82
2024/01/07 00:26:40;;;;;;;13.90;9.60;;;;;;;3.96;89.19;94291.09;110588;1274;22387;-81
2024/01/07 00:29:08;;;;;;;13.40;9.30;;;;;;;3.99;88.98;94289.49;110603;1274;22552;-82
2024/01/07 00:31:36;;;;;;;16.20;10.60;;;;;;;4.06;89.34;94284.34;110576;1274;22994;-82
2024/01/07 00:34:04;;;;;;;26.40;16.10;;;;;;;4.15;89.72;94281.41;110584;1271;22937;-82
2024/01/07 00:36:32;;;;;;;26.80;16.30;;;;;;;4.18;89.00;94280.67;110625;1274;22137;-82
2024/01/07 00:39:01;;;;;;;28.60;16.20;;;;;;;4.15;88.68;94281.06;110616;1274;22442;-81
2024/01/07 00:41:30;;;;;;;14.60;8.50;;;;;;;4.20;88.98;94280.98;110547;1274;22129;-82
2024/01/07 00:43:58;;;;;;;11.10;7.90;;;;;;;4.23;88.57;94273.45;110604;1274;22266;-82
2024/01/07 00:46:27;;;;;;;9.00;5.90;;;;;;;4.27;88.90;94271.84;110618;1274;22155;-81
2024/01/07 00:48:55;;;;;;;9.60;6.20;;;;;;;4.27;88.44;94272.72;110612;1274;22440;-81
2024/01/07 00:51:23;;;;;;;9.60;6.10;;;;;;;4.28;88.62;94272.52;110622;1274;22895;-82
2024/01/07 00:53:51;;;;;;;15.30;8.90;;;;;;;4.28;88.30;94274.61;110625;1274;22306;-82
2024/01/07 00:56:19;;;;;;;13.10;7.60;;;;;;;4.28;88.63;94272.52;110618;1274;22322;-82
2024/01/07 00:58:47;;;;;;;15.60;10.60;;;;;;;4.25;88.26;94275.52;110563;1274;22126;-82
2024/01/07 01:01:16;;;;;;;23.50;15.10;;;;;;;4.14;88.07;94273.60;110562;1274;22153;-82
2024/01/07 01:03:44;;;;;;;29.60;16.60;;;;;;;4.06;88.02;94272.15;110625;1274;22808;-81
2024/01/07 01:06:12;;;;;;;25.20;14.40;;;;;;;4.07;88.37;94267.63;110629;1274;22136;-81
2024/01/07 01:08:40;;;;;;;12.20;7.80;;;;;;;4.07;88.26;94266.22;110582;1274;22129;-81
2024/01/07 01:11:10;;;;;;;14.30;10.20;;;;;;;4.07;88.39;94261.88;110612;1274;22123;-82
2024/01/07 01:13:38;;;;;;;12.30;7.90;;;;;;;4.12;88.49;94262.67;110563;1274;22176;-82
2024/01/07 01:16:06;;;;;;;14.30;8.60;;;;;;;4.08;88.10;94262.03;110601;1274;22118;-82
2024/01/07 01:18:34;;;;;;;21.20;11.50;;;;;;;4.12;88.45;94262.14;110577;1274;22139;-82
2024/01/07 01:21:04;;;;;;;29.30;17.30;;;;;;;4.09;87.91;94262.89;110630;1263;22115;-82
2024/01/07 01:23:32;;;;;;;34.10;19.90;;;;;;;4.10;88.13;94261.48;110518;1274;22780;-82
2024/01/07 01:26:00;;;;;;;25.40;14.40;;;;;;;4.15;88.40;94253.23;110626;1274;22330;-82
2024/01/07 01:28:29;;;;;;;15.30;9.30;;;;;;;4.13;88.03;94251.17;110643;1274;22136;-82
2024/01/07 01:30:57;;;;;;;10.90;6.90;;;;;;;4.13;88.57;94249.42;110624;1274;22091;-82
2024/01/07 01:33:25;;;;;;;40.40;24.60;;;;;;;4.16;88.72;94242.61;110622;1274;22927;-82
2024/01/07 01:35:54;;;;;;;44.40;24.60;;;;;;;4.12;88.37;94240.23;110612;1274;22135;-82
2024/01/07 01:38:22;;;;;;;26.80;15.00;;;;;;;4.04;88.08;94236.35;110607;1274;22108;-82
2024/01/07 01:40:54;;;;;;;18.40;11.60;;;;;;;4.01;88.23;94237.27;110606;1274;22380;-82
2024/01/07 01:43:26;;;;;;;17.70;10.50;;;;;;;3.96;87.88;94237.16;110598;1274;22908;-82
2024/01/07 01:45:55;;;;;;;16.30;11.20;;;;;;;3.91;88.00;94225.05;110593;1274;22128;-82
2024/01/07 01:48:24;;;;;;;13.80;7.30;;;;;;;3.84;87.72;94220.11;110585;1274;22128;-82
2024/01/07 01:50:54;;;;;;;14.80;7.30;;;;;;;3.76;87.37;94220.93;110378;1274;22091;-82
2024/01/07 01:53:22;;;;;;;38.90;21.00;;;;;;;3.65;88.24;94219.19;110619;1274;22241;-82
2024/01/07 01:55:50;;;;;;;36.20;21.30;;;;;;;3.52;88.29;94216.58;110622;1274;22121;-81
2024/01/07 01:58:19;;;;;;;43.00;23.40;;;;;;;3.39;88.45;94213.45;110346;1274;22978;-82
2024/01/07 02:00:48;;;;;;;53.30;27.20;;;;;;;3.30;88.39;94211.30;110355;1274;22278;-82
2024/01/07 02:03:17;;;;;;;38.80;20.80;;;;;;;3.25;88.43;94209.97;110589;1274;22101;-82
2024/01/07 02:05:47;;;;;;;23.90;12.70;;;;;;;3.18;88.49;94207.98;110593;1272;23234;-82
2024/01/07 02:08:18;;;;;;;20.10;9.20;;;;;;;3.13;88.54;94212.90;110615;1274;22885;-82
2024/01/07 02:10:46;;;;;;;5.40;3.90;;;;;;;3.12;88.81;94207.88;110613;1274;22155;-82
2024/01/07 02:13:15;;;;;;;6.50;4.20;;;;;;;3.12;88.92;94206.49;110629;1274;22174;-82
2024/01/07 02:15:43;;;;;;;9.80;6.20;;;;;;;3.11;89.01;94204.41;110623;1274;22136;-80
2024/01/07 02:18:12;;;;;;;19.50;11.60;;;;;;;3.08;89.09;94200.46;110585;1274;22628;-81
2024/01/07 02:20:40;;;;;;;23.80;13.70;;;;;;;3.05;89.37;94194.07;110614;1274;23003;-81
2024/01/07 02:23:08;;;;;;;20.90;13.00;;;;;;;3.00;89.68;94185.27;110576;1274;22911;-81
2024/01/07 02:25:37;;;;;;;19.80;11.30;;;;;;;2.96;89.58;94187.06;110598;1274;22230;-81
2024/01/07 02:28:05;;;;;;;10.90;5.90;;;;;;;2.93;89.51;94185.17;110576;1266;22112;-82
2024/01/07 02:30:34;;;;;;;20.30;10.40;;;;;;;2.93;89.65;94177.88;110595;1274;22146;-81
2024/01/07 02:33:05;;;;;;;17.30;10.40;;;;;;;2.94;89.66;94175.95;110578;1274;22159;-81
2024/01/07 02:35:34;;;;;;;8.50;3.90;;;;;;;2.95;89.48;94173.53;110617;1274;22111;-81
2024/01/07 02:38:02;;;;;;;16.80;10.10;;;;;;;2.98;89.74;94169.31;110598;1274;22274;-81
2024/01/07 02:40:30;;;;;;;44.00;22.90;;;;;;;3.00;89.92;94172.94;110588;1274;22381;-80
2024/01/07 02:42:58;;;;;;;43.20;24.40;;;;;;;3.00;89.76;94172.59;110660;1274;22346;-81
2024/01/07 02:45:27;;;;;;;22.60;13.80;;;;;;;3.04;90.15;94171.50;110584;1274;22151;-81
2024/01/07 02:47:55;;;;;;;22.70;12.90;;;;;;;3.09;90.21;94168.13;110599;1274;22119;-81
2024/01/07 02:50:24;;;;;;;6.80;4.30;;;;;;;3.12;89.92;94162.88;110615;1274;22111;-81
2024/01/07 02:52:52;;;;;;;9.40;4.30;;;;;;;3.17;90.31;94159.52;110635;1274;22106;-81
2024/01/07 02:55:20;;;;;;;9.30;5.00;;;;;;;3.24;90.22;94166.01;110636;1274;22800;-81
2024/01/07 02:57:49;;;;;;;8.60;4.40;;;;;;;3.24;89.91;94156.81;110599;1274;22148;-79
2024/01/07 03:00:17;;;;;;;5.90;3.10;;;;;;;3.27;90.21;94159.73;110613;1274;22250;-81
2024/01/07 03:02:45;;;;;;;8.20;4.20;;;;;;;3.36;90.80;94146.91;110604;1274;22194;-81
2024/01/07 03:05:13;;;;;;;19.00;9.90;;;;;;;3.43;90.74;94138.98;110640;1274;22115;-80
2024/01/07 03:07:42;;;;;;;15.60;8.70;;;;;;;3.55;91.23;94133.43;110595;1274;22838;-81
2024/01/07 03:10:10;;;;;;;8.90;4.30;;;;;;;3.63;90.67;94134.17;110623;1274;22130;-81
2024/01/07 03:12:38;;;;;;;9.00;2.00;;;;;;;3.63;90.00;94129.83;110622;1274;22060;-81
2024/01/07 03:15:08;;;;;;;3.70;2.50;;;;;;;3.56;89.35;94126.64;110629;1274;22114;-81
2024/01/07 03:17:37;;;;;;;8.20;5.10;;;;;;;3.48;89.43;94127.98;110622;1274;22256;-81
2024/01/07 03:20:06;;;;;;;7.60;4.90;;;;;;;3.43;89.36;94128.05;110600;1274;22280;-81
2024/01/07 03:22:34;;;;;;;3.60;2.70;;;;;;;3.41;89.39;94124.95;110604;1274;22832;-81
2024/01/07 03:25:02;;;;;;;4.30;2.40;;;;;;;3.44;89.94;94121.77;110603;1274;22290;-81
2024/01/07 03:27:30;;;;;;;4.80;2.90;;;;;;;3.49;90.31;94119.09;110582;1274;22201;-81
2024/01/07 03:29:59;;;;;;;3.60;2.20;;;;;;;3.54;90.34;94112.41;110639;1274;22186;-81
2024/01/07 03:32:28;;;;;;;2.10;1.90;;;;;;;3.54;89.88;94115.52;110586;1274;22123;-81
2024/01/07 03:34:56;;;;;;;4.60;2.50;;;;;;;3.52;89.87;94115.55;110624;1274;22116;-81
2024/01/07 03:37:25;;;;;;;3.30;2.00;;;;;;;3.49;89.80;94113.52;110586;1274;22820;-81
2024/01/07 03:39:53;;;;;;;11.30;5.60;;;;;;;3.45;89.99;94114.44;110618;1274;22123;-81
2024/01/07 03:42:21;;;;;;;29.30;14.80;;;;;;;3.42;89.99;94112.75;110582;1274;22844;-81
2024/01/07 03:44:49;;;;;;;12.50;7.70;;;;;;;3.48;90.48;94115.80;110595;1274;22139;-81
2024/01/07 03:47:17;;;;;;;6.00;3.60;;;;;;;3.60;91.06;94110.23;110579;1274;22229;-81
2024/01/07 03:49:45;;;;;;;9.50;6.60;;;;;;;3.67;90.76;94109.60;110599;1274;22866;-81
2024/01/07 03:52:14;;;;;;;29.30;15.40;;;;;;;3.68;90.14;94104.02;110619;1274;22222;-81
2024/01/07 03:54:42;;;;;;;28.20;15.00;;;;;;;3.70;90.31;94102.42;110592;1274;22457;-81
2024/01/07 03:57:10;;;;;;;24.60;14.10;;;;;;;3.64;89.36;94102.69;110637;1274;22239;-81
2024/01/07 03:59:38;;;;;;;36.40;20.90;;;;;;;3.58;89.35;94099.30;110631;1274;22131;-81
2024/01/07 04:02:07;;;;;;;12.80;7.50;;;;;;;3.55;89.19;94102.83;110653;1274;22208;-81
2024/01/07 04:04:35;;;;;;;6.20;3.40;;;;;;;3.53;89.47;94102.52;110659;1274;22728;-81
2024/01/07 04:07:03;;;;;;;5.10;3.00;;;;;;;3.57;90.02;94101.91;110631;1274;22770;-81
2024/01/07 04:09:31;;;;;;;3.50;2.70;;;;;;;3.59;89.83;94101.54;110618;1274;22314;-81
2024/01/07 04:12:00;;;;;;;3.90;2.30;;;;;;;3.55;89.34;94103.00;110589;1274;22177;-81
2024/01/07 04:14:29;;;;;;;11.30;6.40;;;;;;;3.47;88.94;94100.51;110618;1274;22265;-81
2024/01/07 04:16:57;;;;;;;21.10;12.60;;;;;;;3.29;88.54;94101.83;110585;1274;22811;-81
2024/01/07 04:19:25;;;;;;;23.30;12.70;;;;;;;3.16;88.40;94105.66;110632;1274;22113;-81
2024/01/07 04:21:53;;;;;;;27.50;14.50;;;;;;;3.08;88.81;94107.52;110622;1274;22861;-81
2024/01/07 04:24:22;;;;;;;88.40;39.50;;;;;;;3.01;88.95;94112.13;110623;1274;22139;-81
2024/01/07 04:26:50;;;;;;;26.50;13.30;;;;;;;3.00;89.22;94113.00;110611;1274;22157;-81
2024/01/07 04:29:19;;;;;;;5.50;2.90;;;;;;;3.00;89.30;94106.74;110586;1274;22874;-81
2024/01/07 04:31:47;;;;;;;3.90;2.40;;;;;;;3.01;89.56;94113.34;110648;1274;22922;-81
2024/01/07 04:34:15;;;;;;;3.90;2.20;;;;;;;3.01;89.57;94109.52;110624;1274;22203;-81
2024/01/07 04:36:43;;;;;;;5.80;2.50;;;;;;;2.97;89.42;94109.22;110616;1274;22180;-81
2024/01/07 04:39:12;;;;;;;7.50;4.40;;;;;;;2.92;89.40;94113.11;110592;1274;22094;-81
2024/01/07 04:41:40;;;;;;;33.10;14.10;;;;;;;2.89;89.65;94109.67;110597;1274;22908;-81
2024/01/07 04:44:10;;;;;;;49.70;22.70;;;;;;;2.86;89.72;94111.45;110608;1274;22157;-81
2024/01/07 04:46:39;;;;;;;22.90;11.90;;;;;;;2.85;89.84;94109.55;110568;1275;22970;-81
2024/01/07 04:49:07;;;;;;;7.60;3.90;;;;;;;2.86;89.97;94102.95;110585;1274;22174;-81
2024/01/07 04:51:38;;;;;;;4.10;2.20;;;;;;;2.88;90.00;94101.70;110603;1274;22208;-81
2024/01/07 04:54:07;;;;;;;3.40;2.00;;;;;;;2.90;90.01;94096.13;110597;1274;22168;-81
2024/01/07 04:56:35;;;;;;;2.60;1.90;;;;;;;2.90;89.83;94098.73;110560;1274;22127;-81
2024/01/07 04:59:03;;;;;;;3.30;1.90;;;;;;;2.90;89.82;94096.13;110583;1274;22151;-81
2024/01/07 05:01:35;;;;;;;5.00;2.60;;;;;;;2.90;89.75;94097.86;110613;1274;22064;-81
2024/01/07 05:04:03;;;;;;;3.30;2.20;;;;;;;2.92;89.71;94093.30;110613;1274;22785;-81
2024/01/07 05:06:32;;;;;;;5.50;2.40;;;;;;;2.95;89.73;94085.80;110613;1274;22202;-81
2024/01/07 05:09:00;;;;;;;3.60;2.10;;;;;;;2.96;89.71;94077.98;110594;1274;22279;-81
2024/01/07 05:11:28;;;;;;;4.20;2.50;;;;;;;2.96;89.80;94076.23;110589;1274;22431;-81
2024/01/07 05:13:56;;;;;;;5.90;3.40;;;;;;;3.00;90.09;94075.66;110600;1274;22317;-81
2024/01/07 05:16:24;;;;;;;5.40;2.80;;;;;;;3.03;90.04;94071.63;110617;1274;22330;-81
2024/01/07 05:18:52;;;;;;;3.80;2.90;;;;;;;3.10;90.38;94069.44;110587;1274;22279;-81
2024/01/07 05:21:21;;;;;;;4.50;2.50;;;;;;;3.16;90.32;94071.80;110629;1274;22106;-81
2024/01/07 05:23:49;;;;;;;4.10;2.50;;;;;;;3.19;90.39;94074.17;110573;1275;22363;-80
2024/01/07 05:26:17;;;;;;;9.60;5.90;;;;;;;3.22;90.32;94076.04;110575;1274;22808;-81
2024/01/07 05:28:45;;;;;;;23.60;12.00;;;;;;;3.22;90.40;94075.86;110624;1274;22139;-81
2024/01/07 05:31:15;;;;;;;19.30;10.40;;;;;;;3.22;90.30;94072.73;110599;1275;22199;-81
2024/01/07 05:33:44;;;;;;;17.70;10.00;;;;;;;3.18;89.58;94067.59;110610;1267;22135;-81
2024/01/07 05:36:13;;;;;;;15.10;9.80;;;;;;;3.13;89.62;94063.50;110576;1274;22845;-81
2024/01/07 05:38:44;;;;;;;6.70;4.30;;;;;;;3.16;89.85;94063.27;110603;1274;23124;-81
2024/01/07 05:41:12;;;;;;;3.50;2.20;;;;;;;3.10;89.52;94063.20;110581;1274;22963;-81
2024/01/07 05:43:41;;;;;;;2.80;1.80;;;;;;;3.04;89.55;94062.41;110157;1274;585890;-81
2024/01/07 05:46:10;;;;;;;3.50;1.70;;;;;;;3.02;90.08;94060.52;110593;1274;22149;-81
2024/01/07 05:48:46;;;;;;;4.20;1.90;;;;;;;3.09;90.72;94065.29;110569;1274;22153;-81
2024/01/07 05:51:15;;;;;;;2.90;1.90;;;;;;;3.14;91.14;94064.00;110586;1274;22112;-81
2024/01/07 05:53:45;;;;;;;4.00;1.90;;;;;;;3.16;90.77;94061.20;110556;1274;22115;-81
2024/01/07 05:56:13;;;;;;;5.30;2.20;;;;;;;3.11;90.26;94057.44;110582;1274;22224;-81
2024/01/07 05:58:42;;;;;;;3.50;2.70;;;;;;;3.06;90.05;94056.29;110587;1274;22810;-81
2024/01/07 06:01:10;;;;;;;4.00;1.80;;;;;;;3.00;89.86;94051.36;110625;1275;22884;-81
2024/01/07 06:03:38;;;;;;;46.60;21.60;;;;;;;2.94;89.78;94053.17;110613;1274;22158;-82
2024/01/07 06:06:06;;;;;;;5.40;2.40;;;;;;;2.92;90.23;94050.59;110584;1274;22125;-81
2024/01/07 06:08:35;;;;;;;2.40;1.80;;;;;;;2.99;90.96;94049.80;110576;1275;22204;-81
2024/01/07 06:11:03;;;;;;;17.80;8.90;;;;;;;3.03;90.54;94045.56;110622;1274;22124;-82
2024/01/07 06:13:31;;;;;;;7.00;2.70;;;;;;;3.02;90.18;94043.34;110574;1266;22117;-82
2024/01/07 06:15:59;;;;;;;4.20;1.50;;;;;;;2.97;90.15;94042.52;110593;1274;22942;-82
2024/01/07 06:18:28;;;;;;;4.40;1.60;;;;;;;2.92;89.78;94041.73;110566;1274;22154;-81
2024/01/07 06:20:56;;;;;;;2.20;1.60;;;;;;;2.91;90.29;94043.14;110593;1274;23001;-82
2024/01/07 06:23:24;;;;;;;5.40;1.60;;;;;;;2.93;90.52;94041.70;110593;1274;22850;-82
2024/01/07 06:25:52;;;;;;;3.20;1.30;;;;;;;2.90;90.27;94041.76;110654;1273;22131;-82
2024/01/07 06:28:21;;;;;;;2.90;1.30;;;;;;;2.84;89.95;94041.84;110583;1273;22748;-81
2024/01/07 06:30:49;;;;;;;3.10;1.40;;;;;;;2.73;89.28;94041.12;110555;1273;22866;-82
2024/01/07 06:33:17;;;;;;;2.60;1.80;;;;;;;2.64;89.26;94039.17;110673;1274;22849;-81
2024/01/07 06:35:46;;;;;;;3.60;1.50;;;;;;;2.56;89.06;94042.91;110584;1273;22111;-81
2024/01/07 06:38:14;;;;;;;3.00;1.80;;;;;;;2.45;88.68;94042.35;110688;1273;22097;-81
2024/01/07 06:40:43;;;;;;;1.90;1.30;;;;;;;2.34;88.64;94040.94;110643;1274;22974;-80
2024/01/07 06:43:11;;;;;;;2.50;1.30;;;;;;;2.25;88.82;94044.50;110656;1274;22321;-81
2024/01/07 06:45:39;;;;;;;2.00;1.50;;;;;;;2.20;89.07;94041.95;110654;1274;22811;-81
2024/01/07 06:48:07;;;;;;;2.60;2.00;;;;;;;2.13;89.00;94048.11;110598;1274;22872;-81
2024/01/07 06:50:36;;;;;;;28.60;13.00;;;;;;;2.01;89.50;94051.55;110596;1274;22213;-81
2024/01/07 06:53:04;;;;;;;13.90;7.30;;;;;;;1.92;89.28;94052.51;110604;1274;22782;-81
2024/01/07 06:55:32;;;;;;;4.00;2.70;;;;;;;1.90;89.60;94053.73;110592;1274;22169;-81
2024/01/07 06:58:00;;;;;;;3.30;1.80;;;;;;;1.86;89.61;94058.11;110595;1273;22118;-81
2024/01/07 07:00:29;;;;;;;15.90;8.00;;;;;;;1.81;89.62;94061.10;110556;1274;22776;-81
2024/01/07 07:02:57;;;;;;;8.00;4.50;;;;;;;1.83;89.61;94060.91;110668;1274;22148;-81
2024/01/07 07:05:25;;;;;;;3.60;2.00;;;;;;;1.85;89.79;94062.10;110648;1273;22105;-81
2024/01/07 07:07:53;;;;;;;6.00;3.10;;;;;;;1.92;90.05;94055.80;110663;1274;22293;-81
2024/01/07 07:10:22;;;;;;;4.60;2.00;;;;;;;2.01;90.23;94052.23;110673;1273;22824;-81
2024/01/07 07:12:51;;;;;;;5.50;2.50;;;;;;;2.09;90.56;94049.02;110636;1274;22141;-81
2024/01/07 07:15:19;;;;;;;22.70;12.40;;;;;;;2.17;90.57;94046.33;110599;1274;22119;-81
2024/01/07 07:17:47;;;;;;;12.30;8.40;;;;;;;2.23;90.64;94047.13;110689;1272;22140;-81
2024/01/07 07:20:16;;;;;;;28.60;17.50;;;;;;;2.24;90.05;94050.59;110668;1274;22108;-81
2024/01/07 07:22:44;;;;;;;42.50;24.00;;;;;;;2.31;90.52;94049.65;110694;1274;22946;-81
2024/01/07 07:25:12;;;;;;;43.40;25.10;;;;;;;2.40;90.57;94050.05;110698;1274;23164;-81
2024/01/07 07:27:41;;;;;;;67.60;39.20;;;;;;;2.45;90.48;94045.13;110568;1273;22147;-81
2024/01/07 07:30:10;;;;;;;116.10;60.10;;;;;;;2.55;90.90;94041.02;110663;1274;22260;-81
2024/01/07 07:32:41;;;;;;;101.00;53.60;;;;;;;2.66;91.23;94038.79;110665;1274;22162;-81
2024/01/07 07:35:10;;;;;;;81.80;45.80;;;;;;;2.72;90.38;94039.40;110694;1274;22943;-81
2024/01/07 07:37:38;;;;;;;78.30;42.50;;;;;;;2.69;89.58;94038.93;110700;1274;22107;-81
2024/01/07 07:40:07;;;;;;;63.70;34.90;;;;;;;2.78;90.30;94037.75;110695;1274;22118;-81
2024/01/07 07:42:35;;;;;;;65.20;35.90;;;;;;;2.84;90.03;94039.77;110666;1274;22330;-81
2024/01/07 07:45:04;;;;;;;71.40;39.80;;;;;;;2.88;89.74;94040.57;110570;1274;22912;-81
2024/01/07 07:47:32;;;;;;;33.50;20.00;;;;;;;2.95;89.82;94037.86;110692;1274;22850;-81
2024/01/07 07:50:01;;;;;;;6.70;3.90;;;;;;;3.04;90.10;94039.65;110691;1274;22261;-81
2024/01/07 07:52:30;;;;;;;23.50;15.50;;;;;;;3.16;90.85;94038.59;110712;1274;22162;-82
2024/01/07 07:54:58;;;;;;;8.10;4.90;;;;;;;3.31;91.31;94035.23;110692;1274;22807;-81
2024/01/07 07:57:28;;;;;;;8.90;5.00;;;;;;;3.29;89.45;94031.64;110674;1273;22167;-80
2024/01/07 07:59:56;;;;;;;5.10;3.40;;;;;;;3.30;89.58;94031.80;110682;1273;22814;-81
2024/01/07 08:02:28;;;;;;;17.70;10.80;;;;;;;3.28;89.01;94030.43;110690;1273;22114;-81
2024/01/07 08:04:56;;;;;;;42.00;24.40;;;;;;;3.18;88.35;94035.63;110691;1273;22144;-81
2024/01/07 08:07:25;;;;;;;32.30;21.10;;;;;;;3.08;88.37;94034.56;110675;1274;22089;-81
2024/01/07 08:09:53;;;;;;;46.60;27.60;;;;;;;3.12;89.41;94029.11;110663;1274;22951;-81
2024/01/07 08:12:21;;;;;;;23.90;14.80;;;;;;;3.13;88.71;94032.73;110703;1275;22227;-81
2024/01/07 08:14:50;;;;;;;10.80;5.70;;;;;;;3.11;89.14;94026.52;110706;1274;22124;-81
2024/01/07 08:17:18;;;;;;;7.00;4.50;;;;;;;3.19;89.88;94026.39;110613;1270;22856;-81
2024/01/07 08:19:46;;;;;;;12.10;5.50;;;;;;;3.23;89.77;94026.32;110662;1274;22118;-81
2024/01/07 08:22:14;;;;;;;9.10;4.70;;;;;;;3.28;89.65;94020.00;110694;1274;22124;-81
2024/01/07 08:24:43;;;;;;;8.20;5.30;;;;;;;3.25;89.05;94020.90;110579;1274;22201;-81
2024/01/07 08:27:11;;;;;;;24.20;14.00;;;;;;;3.24;89.21;94019.70;110568;1274;22111;-81
2024/01/07 08:29:43;;;;;;;29.30;17.30;;;;;;;3.28;89.21;94021.22;110561;1273;22139;-81
2024/01/07 08:32:12;;;;;;;24.10;16.70;;;;;;;3.29;89.43;94014.77;110622;1274;22136;-81
2024/01/07 08:34:40;;;;;;;25.70;16.40;;;;;;;3.32;89.59;94023.93;110645;1273;22142;-81
2024/01/07 08:37:09;;;;;;;27.50;17.60;;;;;;;3.32;89.39;94021.34;110658;1274;22180;-81
2024/01/07 08:39:37;;;;;;;24.80;16.00;;;;;;;3.30;89.11;94023.10;110655;1274;22915;-81
2024/01/07 08:42:06;;;;;;;30.30;20.30;;;;;;;3.25;88.93;94022.48;110661;1274;22113;-81
2024/01/07 08:44:34;;;;;;;41.60;30.90;;;;;;;3.20;88.91;94025.86;110649;1273;22159;-81
2024/01/07 08:47:02;;;;;;;11.90;7.90;;;;;;;3.20;89.10;94024.81;110640;1273;22823;-81
2024/01/07 08:49:33;;;;;;;19.70;12.80;;;;;;;3.15;89.32;94024.89;110564;1273;22128;-81
2024/01/07 08:52:02;;;;;;;10.40;7.80;;;;;;;3.11;89.36;94021.30;110630;1273;22200;-81
2024/01/07 08:54:30;;;;;;;14.10;11.00;;;;;;;3.05;89.31;94025.56;110633;1273;22120;-81
2024/01/07 08:56:58;;;;;;;25.60;12.60;;;;;;;3.08;89.97;94029.52;110650;1273;22149;-81
2024/01/07 08:59:27;;;;;;;51.40;37.20;;;;;;;3.07;89.77;94035.27;110583;1273;23034;-81
2024/01/07 09:01:55;;;;;;;99.10;75.80;;;;;;;3.11;90.04;94032.08;110587;1273;22121;-81
2024/01/07 09:04:23;;;;;;;20.60;15.60;;;;;;;3.18;90.27;94029.20;110615;1273;22145;-81
2024/01/07 09:06:52;;;;;;;34.10;23.10;;;;;;;3.25;90.45;94025.08;110638;1274;22098;-81
2024/01/07 09:09:20;;;;;;;46.60;28.50;;;;;;;3.32;90.73;94024.28;110577;1274;22175;-81
2024/01/07 09:11:48;;;;;;;23.60;14.30;;;;;;;3.41;90.84;94020.66;110570;1274;22345;-81
2024/01/07 09:14:16;;;;;;;24.90;16.90;;;;;;;3.50;90.91;94014.95;110579;1273;22196;-81
2024/01/07 09:16:44;;;;;;;20.10;13.90;;;;;;;3.63;91.06;94014.38;110563;1274;22898;-81
2024/01/07 09:19:13;;;;;;;19.70;11.90;;;;;;;3.79;91.07;94014.95;110632;1274;22169;-81
2024/01/07 09:21:43;;;;;;;32.10;24.70;;;;;;;3.98;91.18;94005.92;110617;1273;22119;-81
2024/01/07 09:24:11;;;;;;;19.30;15.50;;;;;;;4.17;90.87;94009.73;110586;1273;22293;-81
2024/01/07 09:26:40;;;;;;;14.00;9.40;;;;;;;4.34;90.06;94011.48;110573;1274;22408;-80
2024/01/07 09:29:08;;;;;;;19.90;12.60;;;;;;;4.53;89.82;94008.48;110629;1273;22236;-80
2024/01/07 09:31:37;;;;;;;15.40;10.10;;;;;;;4.74;90.24;94005.27;110620;1273;22120;-80
2024/01/07 09:34:06;;;;;;;15.40;10.10;;;;;;;4.96;90.53;93993.09;110635;1273;22954;-80
2024/01/07 09:36:36;;;;;;;16.40;9.40;;;;;;;5.18;90.39;93989.45;110623;1273;22146;-81
2024/01/07 09:39:07;;;;;;;11.00;7.70;;;;;;;5.34;89.79;93988.02;110624;1273;22861;-81
2024/01/07 09:41:35;;;;;;;14.40;9.50;;;;;;;5.49;89.75;93980.48;110641;1273;22141;-81
2024/01/07 09:44:04;;;;;;;12.50;8.70;;;;;;;5.67;89.59;93977.42;110609;1273;22979;-81
2024/01/07 09:46:37;;;;;;;13.60;9.50;;;;;;;5.85;89.16;93973.48;110574;1274;22285;-81
2024/01/07 09:49:05;;;;;;;13.10;8.00;;;;;;;5.94;88.23;93965.05;110594;1273;22145;-81
2024/01/07 09:51:37;;;;;;;12.60;8.10;;;;;;;6.03;88.16;93961.85;110635;1273;22128;-81
2024/01/07 09:54:11;;;;;;;11.00;6.90;;;;;;;6.14;87.73;93957.89;110633;1273;22138;-81
2024/01/07 09:56:42;;;;;;;13.40;6.80;;;;;;;6.22;87.42;93958.02;110635;1273;22111;-81
2024/01/07 09:59:11;;;;;;;10.10;7.10;;;;;;;6.31;87.27;93952.00;110585;1273;22111;-81
2024/01/07 10:01:39;;;;;;;9.00;6.70;;;;;;;6.37;86.84;93952.35;110618;1274;23026;-81
2024/01/07 10:04:08;;;;;;;10.40;7.40;;;;;;;6.41;86.06;93948.58;110652;1273;22848;-81
2024/01/07 10:06:37;;;;;;;10.00;7.00;;;;;;;6.40;85.07;93943.87;110652;1274;22203;-81
2024/01/07 10:09:06;;;;;;;11.80;7.80;;;;;;;6.50;85.48;93937.48;110622;1273;22760;-81
2024/01/07 10:11:35;;;;;;;11.10;7.60;;;;;;;6.60;85.19;93934.58;110617;1274;23120;-81
2024/01/07 10:14:04;;;;;;;11.30;8.20;;;;;;;6.71;85.22;93931.94;110618;1273;22150;-81
2024/01/07 10:16:33;;;;;;;15.50;9.00;;;;;;;6.96;85.38;93920.34;110588;1273;22083;-80
2024/01/07 10:19:01;;;;;;;12.20;9.40;;;;;;;7.26;85.03;93910.13;110554;1274;22537;-81
2024/01/07 10:21:29;;;;;;;11.30;8.60;;;;;;;7.75;84.82;93898.50;110623;1273;22221;-81
2024/01/07 10:24:11;;;;;;;10.40;7.90;;;;;;;8.25;83.96;93883.38;110561;1273;22585;-81
2024/01/07 10:26:41;;;;;;;9.30;6.60;;;;;;;8.58;82.44;93881.15;110599;1273;22152;-81
2024/01/07 10:29:09;;;;;;;11.60;7.50;;;;;;;8.76;81.68;93883.23;110564;1259;23051;-81
2024/01/07 10:31:39;;;;;;;10.90;7.40;;;;;;;8.90;80.59;93878.12;110623;1274;22186;-81
2024/01/07 10:34:09;;;;;;;10.60;7.60;;;;;;;8.94;80.04;93876.23;110585;1273;22122;-81
2024/01/07 10:36:40;;;;;;;10.10;6.90;;;;;;;8.94;79.73;93873.08;110578;1274;22186;-81
2024/01/07 10:39:08;;;;;;;11.50;6.90;;;;;;;8.77;77.71;93874.06;110633;1273;22296;-81
2024/01/07 10:41:38;;;;;;;14.60;8.90;;;;;;;8.63;77.24;93874.45;110622;1273;22916;-81
2024/01/07 10:44:06;;;;;;;24.70;15.70;;;;;;;8.48;75.85;93873.95;110542;1273;22126;-81
2024/01/07 10:46:35;;;;;;;27.90;18.60;;;;;;;8.37;75.71;93870.36;110618;1274;22149;-81
2024/01/07 10:49:23;;;;;;;33.50;21.70;;;;;;;8.14;73.80;93865.06;110596;1273;22141;-80
2024/01/07 10:52:05;;;;;;;30.20;18.40;;;;;;;7.99;73.58;93869.79;110595;1274;22960;-80
2024/01/07 10:54:35;;;;;;;22.00;13.50;;;;;;;7.93;74.41;93861.95;110596;1273;22121;-80
2024/01/07 10:57:19;;;;;;;22.80;12.60;;;;;;;7.90;73.67;93856.48;110594;1273;22269;-81
2024/01/07 10:59:50;;;;;;;17.40;10.60;;;;;;;7.92;74.69;93856.92;110432;1273;22919;-81
2024/01/07 11:02:20;;;;;;;14.50;10.20;;;;;;;7.98;74.44;93858.30;110679;1273;22224;-80
2024/01/07 11:05:00;;;;;;;10.40;7.00;;;;;;;7.99;73.10;93856.65;110596;1273;22115;-80
2024/01/07 11:07:38;;;;;;;11.20;7.00;;;;;;;7.94;70.31;93857.56;110608;1273;22129;-81
2024/01/07 11:10:15;;;;;;;12.50;7.50;;;;;;;7.90;70.84;93858.24;110578;1273;22115;-81
2024/01/07 11:12:43;;;;;;;9.10;6.90;;;;;;;7.91;72.41;93855.56;110626;1273;22105;-81
2024/01/07 11:15:12;;;;;;;10.20;7.10;;;;;;;7.92;72.77;93853.25;110658;1273;22123;-80
2024/01/07 11:17:42;;;;;;;24.20;19.40;;;;;;;7.93;73.36;93854.61;110578;1273;22128;-81
2024/01/07 11:20:22;;;;;;;72.80;45.60;;;;;;;7.92;73.75;93857.61;110556;1273;22280;-80
2024/01/07 11:22:50;;;;;;;67.90;49.20;;;;;;;7.90;73.86;93860.85;110613;1273;22136;-81
2024/01/07 11:25:31;;;;;;;41.40;33.20;;;;;;;7.85;73.99;93860.17;110677;1273;22834;-80
2024/01/07 11:28:01;;;;;;;32.90;26.90;;;;;;;7.80;74.55;93857.00;110595;1273;22205;-80
2024/01/07 11:30:30;;;;;;;45.00;37.50;;;;;;;7.78;74.74;93858.48;110577;1273;23061;-80
2024/01/07 11:32:59;;;;;;;12.40;11.10;;;;;;;7.77;74.92;93854.67;110645;1273;22203;-80